sensor_id;sensor_type;location;lat;lon;timestamp;P1;durP1;ratioP1;P2;durP2;ratioP2
57057;SDS011;55017;52.848;6.748;2022-11-02T00:01:43;112.22;;;108.32;;
57057;SDS011;55017;52.848;6.748;2022-11-02T00:03:50;111.53;;;107.57;;
57057;SDS011;55017;52.848;6.748;2022-11-02T00:06:16;113.60;;;109.50;;
57057;SDS011;55017;52.848;6.748;2022-11-02T00:08:42;109.18;;;105.22;;
57057;SDS011;55017;52.848;6.748;2022-11-02T00:11:07;113.05;;;108.72;;
57057;SDS011;55017;52.848;6.748;2022-11-02T00:13:33;112.85;;;108.55;;
57057;SDS011;55017;52.848;6.748;2022-11-02T00:16:02;108.45;;;104.30;;
57057;SDS011;55017;52.848;6.748;2022-11-02T00:18:31;111.97;;;107.75;;
57057;SDS011;55017;52.848;6.748;2022-11-02T00:20:58;109.18;;;105.25;;
57057;SDS011;55017;52.848;6.748;2022-11-02T00:23:25;106.28;;;102.53;;
57057;SDS011;55017;52.848;6.748;2022-11-02T00:25:51;112.90;;;108.78;;
57057;SDS011;55017;52.848;6.748;2022-11-02T00:28:18;108.80;;;105.00;;
57057;SDS011;55017;52.848;6.748;2022-11-02T00:30:44;109.05;;;105.18;;
57057;SDS011;55017;52.848;6.748;2022-11-02T00:33:10;108.43;;;104.53;;
57057;SDS011;55017;52.848;6.748;2022-11-02T00:35:35;109.32;;;105.18;;
57057;SDS011;55017;52.848;6.748;2022-11-02T00:38:02;111.97;;;108.13;;
57057;SDS011;55017;52.848;6.748;2022-11-02T00:40:28;109.30;;;105.60;;
57057;SDS011;55017;52.848;6.748;2022-11-02T00:42:54;109.18;;;105.07;;
57057;SDS011;55017;52.848;6.748;2022-11-02T00:45:19;109.15;;;105.22;;
57057;SDS011;55017;52.848;6.748;2022-11-02T00:47:46;109.18;;;105.13;;
57057;SDS011;55017;52.848;6.748;2022-11-02T00:50:12;110.32;;;106.03;;
57057;SDS011;55017;52.848;6.748;2022-11-02T00:52:38;109.15;;;104.88;;
57057;SDS011;55017;52.848;6.748;2022-11-02T00:55:05;111.57;;;107.38;;
57057;SDS011;55017;52.848;6.748;2022-11-02T00:57:33;111.43;;;107.53;;
57057;SDS011;55017;52.848;6.748;2022-11-02T00:59:58;112.03;;;107.82;;
57057;SDS011;55017;52.848;6.748;2022-11-02T01:02:24;113.63;;;109.13;;
57057;SDS011;55017;52.848;6.748;2022-11-02T01:04:50;112.30;;;107.88;;
57057;SDS011;55017;52.848;6.748;2022-11-02T01:07:15;111.68;;;107.70;;
57057;SDS011;55017;52.848;6.748;2022-11-02T01:09:41;112.65;;;108.30;;
57057;SDS011;55017;52.848;6.748;2022-11-02T01:12:06;110.20;;;105.90;;
57057;SDS011;55017;52.848;6.748;2022-11-02T01:14:32;113.32;;;108.93;;
57057;SDS011;55017;52.848;6.748;2022-11-02T01:16:58;110.30;;;106.10;;
57057;SDS011;55017;52.848;6.748;2022-11-02T01:19:24;113.55;;;109.32;;
57057;SDS011;55017;52.848;6.748;2022-11-02T01:21:49;117.13;;;112.13;;
57057;SDS011;55017;52.848;6.748;2022-11-02T01:24:15;112.85;;;107.90;;
57057;SDS011;55017;52.848;6.748;2022-11-02T01:26:41;117.00;;;112.30;;
57057;SDS011;55017;52.848;6.748;2022-11-02T01:29:07;115.43;;;110.43;;
57057;SDS011;55017;52.848;6.748;2022-11-02T01:31:32;116.65;;;111.93;;
57057;SDS011;55017;52.848;6.748;2022-11-02T01:33:59;112.10;;;107.47;;
57057;SDS011;55017;52.848;6.748;2022-11-02T01:36:24;114.88;;;110.47;;
57057;SDS011;55017;52.848;6.748;2022-11-02T01:38:50;115.90;;;111.13;;
57057;SDS011;55017;52.848;6.748;2022-11-02T01:41:16;114.93;;;109.97;;
57057;SDS011;55017;52.848;6.748;2022-11-02T01:43:43;110.97;;;106.75;;
57057;SDS011;55017;52.848;6.748;2022-11-02T01:46:12;115.32;;;110.97;;
57057;SDS011;55017;52.848;6.748;2022-11-02T01:49:09;113.32;;;109.13;;
57057;SDS011;55017;52.848;6.748;2022-11-02T01:51:43;116.18;;;111.68;;
57057;SDS011;55017;52.848;6.748;2022-11-02T01:54:20;115.60;;;111.15;;
57057;SDS011;55017;52.848;6.748;2022-11-02T01:59:21;112.93;;;108.50;;
57057;SDS011;55017;52.848;6.748;2022-11-02T02:01:52;112.47;;;108.07;;
57057;SDS011;55017;52.848;6.748;2022-11-02T02:04:18;113.30;;;108.82;;
57057;SDS011;55017;52.848;6.748;2022-11-02T02:06:44;112.60;;;108.20;;
57057;SDS011;55017;52.848;6.748;2022-11-02T02:09:10;114.43;;;109.80;;
57057;SDS011;55017;52.848;6.748;2022-11-02T02:11:38;112.88;;;108.18;;
57057;SDS011;55017;52.848;6.748;2022-11-02T02:24:56;112.00;;;107.95;;
57057;SDS011;55017;52.848;6.748;2022-11-02T02:28:09;111.75;;;107.05;;
57057;SDS011;55017;52.848;6.748;2022-11-02T02:30:17;110.97;;;106.63;;
57057;SDS011;55017;52.848;6.748;2022-11-02T02:32:46;111.30;;;107.28;;
57057;SDS011;55017;52.848;6.748;2022-11-02T02:37:51;112.20;;;108.18;;
57057;SDS011;55017;52.848;6.748;2022-11-02T02:40:33;115.07;;;110.53;;
57057;SDS011;55017;52.848;6.748;2022-11-02T02:48:20;112.38;;;108.10;;
57057;SDS011;55017;52.848;6.748;2022-11-02T02:50:48;114.15;;;109.75;;
57057;SDS011;55017;52.848;6.748;2022-11-02T02:53:29;112.10;;;108.30;;
57057;SDS011;55017;52.848;6.748;2022-11-02T02:56:01;114.80;;;110.75;;
57057;SDS011;55017;52.848;6.748;2022-11-02T02:58:30;113.70;;;109.40;;
57057;SDS011;55017;52.848;6.748;2022-11-02T03:01:02;114.43;;;110.25;;
57057;SDS011;55017;52.848;6.748;2022-11-02T03:03:30;114.53;;;110.07;;
57057;SDS011;55017;52.848;6.748;2022-11-02T03:09:05;114.00;;;110.00;;
57057;SDS011;55017;52.848;6.748;2022-11-02T03:11:38;114.07;;;109.78;;
57057;SDS011;55017;52.848;6.748;2022-11-02T03:20:46;115.35;;;111.38;;
57057;SDS011;55017;52.848;6.748;2022-11-02T03:23:40;114.57;;;110.43;;
57057;SDS011;55017;52.848;6.748;2022-11-02T03:26:17;114.47;;;110.40;;
57057;SDS011;55017;52.848;6.748;2022-11-02T03:29:02;114.72;;;110.78;;
57057;SDS011;55017;52.848;6.748;2022-11-02T03:34:25;116.22;;;112.40;;
57057;SDS011;55017;52.848;6.748;2022-11-02T03:37:00;112.68;;;108.70;;
57057;SDS011;55017;52.848;6.748;2022-11-02T03:39:36;114.25;;;110.18;;
57057;SDS011;55017;52.848;6.748;2022-11-02T03:42:10;113.50;;;109.72;;
57057;SDS011;55017;52.848;6.748;2022-11-02T03:44:39;113.05;;;109.20;;
57057;SDS011;55017;52.848;6.748;2022-11-02T03:47:07;113.55;;;109.72;;
57057;SDS011;55017;52.848;6.748;2022-11-02T03:49:36;112.47;;;108.68;;
57057;SDS011;55017;52.848;6.748;2022-11-02T03:52:06;116.43;;;112.60;;
57057;SDS011;55017;52.848;6.748;2022-11-02T03:54:43;115.72;;;111.63;;
57057;SDS011;55017;52.848;6.748;2022-11-02T03:57:35;116.95;;;113.15;;
57057;SDS011;55017;52.848;6.748;2022-11-02T04:00:12;116.78;;;112.70;;
57057;SDS011;55017;52.848;6.748;2022-11-02T04:02:44;114.18;;;110.22;;
57057;SDS011;55017;52.848;6.748;2022-11-02T04:05:12;115.65;;;111.68;;
57057;SDS011;55017;52.848;6.748;2022-11-02T04:07:39;117.05;;;113.05;;
57057;SDS011;55017;52.848;6.748;2022-11-02T04:10:25;116.72;;;112.78;;
57057;SDS011;55017;52.848;6.748;2022-11-02T04:12:51;118.53;;;114.43;;
57057;SDS011;55017;52.848;6.748;2022-11-02T04:15:35;117.55;;;113.53;;
57057;SDS011;55017;52.848;6.748;2022-11-02T04:18:01;114.03;;;109.97;;
57057;SDS011;55017;52.848;6.748;2022-11-02T04:20:51;114.72;;;110.75;;
57057;SDS011;55017;52.848;6.748;2022-11-02T04:23:17;117.88;;;113.88;;
57057;SDS011;55017;52.848;6.748;2022-11-02T04:26:02;117.72;;;113.72;;
57057;SDS011;55017;52.848;6.748;2022-11-02T04:28:28;116.20;;;112.18;;
57057;SDS011;55017;52.848;6.748;2022-11-02T04:30:54;117.18;;;113.15;;
57057;SDS011;55017;52.848;6.748;2022-11-02T04:33:22;115.80;;;111.88;;
57057;SDS011;55017;52.848;6.748;2022-11-02T04:36:06;117.32;;;113.32;;
57057;SDS011;55017;52.848;6.748;2022-11-02T04:38:32;115.28;;;111.32;;
57057;SDS011;55017;52.848;6.748;2022-11-02T04:41:14;118.00;;;113.90;;
57057;SDS011;55017;52.848;6.748;2022-11-02T04:44:03;114.57;;;110.68;;
57057;SDS011;55017;52.848;6.748;2022-11-02T04:46:30;117.57;;;113.65;;
57057;SDS011;55017;52.848;6.748;2022-11-02T04:51:23;118.43;;;114.30;;
57057;SDS011;55017;52.848;6.748;2022-11-02T04:53:51;115.57;;;111.47;;
57057;SDS011;55017;52.848;6.748;2022-11-02T04:56:18;116.28;;;112.20;;
57057;SDS011;55017;52.848;6.748;2022-11-02T04:58:47;116.28;;;112.20;;
57057;SDS011;55017;52.848;6.748;2022-11-02T05:01:14;117.57;;;113.38;;
57057;SDS011;55017;52.848;6.748;2022-11-02T05:03:41;116.28;;;111.95;;
57057;SDS011;55017;52.848;6.748;2022-11-02T05:06:10;118.15;;;114.00;;
57057;SDS011;55017;52.848;6.748;2022-11-02T05:11:01;120.47;;;116.15;;
57057;SDS011;55017;52.848;6.748;2022-11-02T05:13:28;116.30;;;111.88;;
57057;SDS011;55017;52.848;6.748;2022-11-02T05:15:57;120.35;;;115.82;;
57057;SDS011;55017;52.848;6.748;2022-11-02T05:18:23;114.50;;;110.53;;
57057;SDS011;55017;52.848;6.748;2022-11-02T05:20:50;116.78;;;112.22;;
57057;SDS011;55017;52.848;6.748;2022-11-02T05:23:17;120.43;;;116.20;;
57057;SDS011;55017;52.848;6.748;2022-11-02T05:28:22;120.10;;;115.75;;
57057;SDS011;55017;52.848;6.748;2022-11-02T05:30:49;117.07;;;112.80;;
57057;SDS011;55017;52.848;6.748;2022-11-02T05:33:14;115.30;;;111.18;;
57057;SDS011;55017;52.848;6.748;2022-11-02T05:35:40;114.45;;;110.30;;
57057;SDS011;55017;52.848;6.748;2022-11-02T05:38:06;115.55;;;111.15;;
57057;SDS011;55017;52.848;6.748;2022-11-02T05:40:32;117.85;;;113.30;;
57057;SDS011;55017;52.848;6.748;2022-11-02T05:42:58;117.72;;;113.35;;
57057;SDS011;55017;52.848;6.748;2022-11-02T05:45:25;114.30;;;110.10;;
57057;SDS011;55017;52.848;6.748;2022-11-02T05:47:51;115.90;;;111.72;;
57057;SDS011;55017;52.848;6.748;2022-11-02T05:50:17;116.45;;;111.75;;
57057;SDS011;55017;52.848;6.748;2022-11-02T05:52:43;116.38;;;112.20;;
57057;SDS011;55017;52.848;6.748;2022-11-02T05:55:08;119.57;;;115.18;;
57057;SDS011;55017;52.848;6.748;2022-11-02T05:57:34;119.68;;;115.07;;
57057;SDS011;55017;52.848;6.748;2022-11-02T05:59:59;116.93;;;112.07;;
57057;SDS011;55017;52.848;6.748;2022-11-02T06:02:25;117.82;;;113.25;;
57057;SDS011;55017;52.848;6.748;2022-11-02T06:04:51;117.43;;;112.80;;
57057;SDS011;55017;52.848;6.748;2022-11-02T06:07:16;117.75;;;113.22;;
57057;SDS011;55017;52.848;6.748;2022-11-02T06:09:42;119.85;;;114.93;;
57057;SDS011;55017;52.848;6.748;2022-11-02T06:12:07;119.13;;;114.30;;
57057;SDS011;55017;52.848;6.748;2022-11-02T06:14:33;117.85;;;113.07;;
57057;SDS011;55017;52.848;6.748;2022-11-02T06:16:59;119.97;;;115.53;;
57057;SDS011;55017;52.848;6.748;2022-11-02T06:19:24;113.30;;;108.97;;
57057;SDS011;55017;52.848;6.748;2022-11-02T06:21:50;116.57;;;112.38;;
57057;SDS011;55017;52.848;6.748;2022-11-02T06:24:15;119.40;;;114.57;;
57057;SDS011;55017;52.848;6.748;2022-11-02T06:26:41;118.93;;;114.32;;
57057;SDS011;55017;52.848;6.748;2022-11-02T06:29:06;118.35;;;113.53;;
57057;SDS011;55017;52.848;6.748;2022-11-02T06:31:32;122.22;;;117.43;;
57057;SDS011;55017;52.848;6.748;2022-11-02T06:33:58;118.90;;;114.40;;
57057;SDS011;55017;52.848;6.748;2022-11-02T06:36:23;119.20;;;114.25;;
57057;SDS011;55017;52.848;6.748;2022-11-02T06:38:49;117.60;;;113.15;;
57057;SDS011;55017;52.848;6.748;2022-11-02T06:41:15;119.65;;;114.95;;
57057;SDS011;55017;52.848;6.748;2022-11-02T06:43:40;117.30;;;112.78;;
57057;SDS011;55017;52.848;6.748;2022-11-02T06:46:06;120.35;;;115.57;;
57057;SDS011;55017;52.848;6.748;2022-11-02T06:48:32;115.55;;;111.15;;
57057;SDS011;55017;52.848;6.748;2022-11-02T06:50:58;117.88;;;113.07;;
57057;SDS011;55017;52.848;6.748;2022-11-02T06:53:24;114.13;;;109.90;;
57057;SDS011;55017;52.848;6.748;2022-11-02T06:55:51;123.25;;;118.65;;
57057;SDS011;55017;52.848;6.748;2022-11-02T06:58:18;120.30;;;115.57;;
57057;SDS011;55017;52.848;6.748;2022-11-02T07:00:43;119.07;;;114.35;;
57057;SDS011;55017;52.848;6.748;2022-11-02T07:03:09;121.03;;;116.53;;
57057;SDS011;55017;52.848;6.748;2022-11-02T07:05:35;119.05;;;114.30;;
57057;SDS011;55017;52.848;6.748;2022-11-02T07:08:01;121.78;;;116.90;;
57057;SDS011;55017;52.848;6.748;2022-11-02T07:10:27;121.03;;;116.60;;
57057;SDS011;55017;52.848;6.748;2022-11-02T07:12:54;117.90;;;113.32;;
57057;SDS011;55017;52.848;6.748;2022-11-02T07:15:21;118.13;;;113.25;;
57057;SDS011;55017;52.848;6.748;2022-11-02T07:17:48;116.43;;;111.90;;
57057;SDS011;55017;52.848;6.748;2022-11-02T07:20:14;121.05;;;116.22;;
57057;SDS011;55017;52.848;6.748;2022-11-02T07:22:40;119.43;;;114.50;;
57057;SDS011;55017;52.848;6.748;2022-11-02T07:25:06;119.22;;;114.60;;
57057;SDS011;55017;52.848;6.748;2022-11-02T07:27:38;115.03;;;110.88;;
57057;SDS011;55017;52.848;6.748;2022-11-02T07:30:05;116.75;;;111.95;;
57057;SDS011;55017;52.848;6.748;2022-11-02T07:32:37;121.07;;;116.00;;
57057;SDS011;55017;52.848;6.748;2022-11-02T07:35:07;119.13;;;114.53;;
57057;SDS011;55017;52.848;6.748;2022-11-02T07:37:34;121.18;;;116.03;;
57057;SDS011;55017;52.848;6.748;2022-11-02T07:40:00;120.60;;;115.78;;
57057;SDS011;55017;52.848;6.748;2022-11-02T07:42:25;120.55;;;115.75;;
57057;SDS011;55017;52.848;6.748;2022-11-02T07:44:51;123.72;;;118.72;;
57057;SDS011;55017;52.848;6.748;2022-11-02T07:47:16;118.57;;;113.75;;
57057;SDS011;55017;52.848;6.748;2022-11-02T07:49:42;122.05;;;116.82;;
57057;SDS011;55017;52.848;6.748;2022-11-02T07:52:08;119.13;;;114.20;;
57057;SDS011;55017;52.848;6.748;2022-11-02T07:54:33;119.40;;;114.90;;
57057;SDS011;55017;52.848;6.748;2022-11-02T07:56:59;120.22;;;115.78;;
57057;SDS011;55017;52.848;6.748;2022-11-02T07:59:24;119.05;;;114.57;;
57057;SDS011;55017;52.848;6.748;2022-11-02T08:01:50;121.95;;;116.88;;
57057;SDS011;55017;52.848;6.748;2022-11-02T08:04:15;116.47;;;111.88;;
57057;SDS011;55017;52.848;6.748;2022-11-02T08:06:41;118.13;;;113.13;;
57057;SDS011;55017;52.848;6.748;2022-11-02T08:09:07;121.90;;;117.07;;
57057;SDS011;55017;52.848;6.748;2022-11-02T08:11:33;124.13;;;118.93;;
57057;SDS011;55017;52.848;6.748;2022-11-02T08:13:58;119.05;;;114.50;;
57057;SDS011;55017;52.848;6.748;2022-11-02T08:16:26;121.27;;;116.43;;
57057;SDS011;55017;52.848;6.748;2022-11-02T08:18:52;120.45;;;115.82;;
57057;SDS011;55017;52.848;6.748;2022-11-02T08:21:18;119.25;;;114.25;;
57057;SDS011;55017;52.848;6.748;2022-11-02T08:23:44;122.28;;;117.55;;
57057;SDS011;55017;52.848;6.748;2022-11-02T08:26:09;117.95;;;113.47;;
57057;SDS011;55017;52.848;6.748;2022-11-02T08:28:36;116.18;;;111.45;;
57057;SDS011;55017;52.848;6.748;2022-11-02T08:31:04;119.00;;;114.65;;
57057;SDS011;55017;52.848;6.748;2022-11-02T08:33:34;116.88;;;112.38;;
57057;SDS011;55017;52.848;6.748;2022-11-02T08:36:00;116.50;;;112.22;;
57057;SDS011;55017;52.848;6.748;2022-11-02T08:38:27;121.13;;;116.50;;
57057;SDS011;55017;52.848;6.748;2022-11-02T08:40:53;114.40;;;110.22;;
57057;SDS011;55017;52.848;6.748;2022-11-02T08:43:19;113.53;;;109.35;;
57057;SDS011;55017;52.848;6.748;2022-11-02T08:45:45;110.13;;;105.88;;
57057;SDS011;55017;52.848;6.748;2022-11-02T08:48:10;115.07;;;110.75;;
57057;SDS011;55017;52.848;6.748;2022-11-02T08:50:36;109.22;;;104.75;;
57057;SDS011;55017;52.848;6.748;2022-11-02T08:53:02;108.70;;;104.68;;
57057;SDS011;55017;52.848;6.748;2022-11-02T08:55:28;105.38;;;101.45;;
57057;SDS011;55017;52.848;6.748;2022-11-02T08:57:55;107.70;;;104.00;;
57057;SDS011;55017;52.848;6.748;2022-11-02T09:00:22;104.68;;;100.85;;
57057;SDS011;55017;52.848;6.748;2022-11-02T09:03:03;103.10;;;99.45;;
57057;SDS011;55017;52.848;6.748;2022-11-02T09:05:37;100.07;;;96.57;;
57057;SDS011;55017;52.848;6.748;2022-11-02T09:08:15;101.20;;;96.95;;
57057;SDS011;55017;52.848;6.748;2022-11-02T09:10:42;103.95;;;100.28;;
57057;SDS011;55017;52.848;6.748;2022-11-02T09:13:11;101.95;;;97.97;;
57057;SDS011;55017;52.848;6.748;2022-11-02T09:15:37;105.68;;;101.68;;
57057;SDS011;55017;52.848;6.748;2022-11-02T09:18:04;101.82;;;98.07;;
57057;SDS011;55017;52.848;6.748;2022-11-02T09:20:31;103.63;;;99.82;;
57057;SDS011;55017;52.848;6.748;2022-11-02T09:22:57;104.63;;;100.82;;
57057;SDS011;55017;52.848;6.748;2022-11-02T09:25:23;103.28;;;99.38;;
57057;SDS011;55017;52.848;6.748;2022-11-02T09:27:52;106.72;;;102.53;;
57057;SDS011;55017;52.848;6.748;2022-11-02T09:30:19;104.93;;;101.20;;
57057;SDS011;55017;52.848;6.748;2022-11-02T09:32:52;102.68;;;99.00;;
57057;SDS011;55017;52.848;6.748;2022-11-02T09:35:26;106.82;;;103.03;;
57057;SDS011;55017;52.848;6.748;2022-11-02T09:37:53;104.85;;;101.13;;
57057;SDS011;55017;52.848;6.748;2022-11-02T09:40:22;105.20;;;101.00;;
57057;SDS011;55017;52.848;6.748;2022-11-02T09:45:56;105.90;;;102.05;;
57057;SDS011;55017;52.848;6.748;2022-11-02T09:48:34;105.63;;;101.57;;
57057;SDS011;55017;52.848;6.748;2022-11-02T09:51:11;105.35;;;101.45;;
57057;SDS011;55017;52.848;6.748;2022-11-02T09:53:45;106.22;;;102.22;;
57057;SDS011;55017;52.848;6.748;2022-11-02T09:56:22;103.88;;;99.88;;
57057;SDS011;55017;52.848;6.748;2022-11-02T09:58:52;102.82;;;98.90;;
57057;SDS011;55017;52.848;6.748;2022-11-02T10:01:32;106.35;;;102.55;;
57057;SDS011;55017;52.848;6.748;2022-11-02T10:07:05;106.50;;;102.57;;
57057;SDS011;55017;52.848;6.748;2022-11-02T10:09:41;106.53;;;102.43;;
57057;SDS011;55017;52.848;6.748;2022-11-02T10:12:16;104.95;;;100.68;;
57057;SDS011;55017;52.848;6.748;2022-11-02T10:15:01;104.40;;;100.65;;
57057;SDS011;55017;52.848;6.748;2022-11-02T10:17:32;108.40;;;104.28;;
57057;SDS011;55017;52.848;6.748;2022-11-02T10:20:04;107.10;;;103.22;;
57057;SDS011;55017;52.848;6.748;2022-11-02T10:22:36;106.13;;;102.10;;
57057;SDS011;55017;52.848;6.748;2022-11-02T10:25:04;104.43;;;100.57;;
57057;SDS011;55017;52.848;6.748;2022-11-02T10:27:33;105.63;;;101.85;;
57057;SDS011;55017;52.848;6.748;2022-11-02T10:32:39;103.82;;;99.95;;
57057;SDS011;55017;52.848;6.748;2022-11-02T10:35:13;105.22;;;101.32;;
57057;SDS011;55017;52.848;6.748;2022-11-02T10:37:50;105.57;;;101.70;;
57057;SDS011;55017;52.848;6.748;2022-11-02T10:43:15;103.50;;;99.70;;
57057;SDS011;55017;52.848;6.748;2022-11-02T10:46:12;102.60;;;98.88;;
57057;SDS011;55017;52.848;6.748;2022-11-02T10:51:24;102.40;;;98.80;;
57057;SDS011;55017;52.848;6.748;2022-11-02T10:53:50;102.93;;;99.03;;
57057;SDS011;55017;52.848;6.748;2022-11-02T10:56:32;104.53;;;100.57;;
57057;SDS011;55017;52.848;6.748;2022-11-02T11:01:23;105.45;;;101.50;;
57057;SDS011;55017;52.848;6.748;2022-11-02T11:03:53;101.00;;;97.00;;
57057;SDS011;55017;52.848;6.748;2022-11-02T11:06:19;101.40;;;97.65;;
57057;SDS011;55017;52.848;6.748;2022-11-02T11:08:46;104.32;;;100.50;;
57057;SDS011;55017;52.848;6.748;2022-11-02T11:11:19;102.07;;;98.47;;
57057;SDS011;55017;52.848;6.748;2022-11-02T11:13:54;99.63;;;96.00;;
57057;SDS011;55017;52.848;6.748;2022-11-02T11:16:29;103.65;;;99.75;;
57057;SDS011;55017;52.848;6.748;2022-11-02T11:18:57;102.82;;;99.13;;
57057;SDS011;55017;52.848;6.748;2022-11-02T11:21:33;102.70;;;99.05;;
57057;SDS011;55017;52.848;6.748;2022-11-02T11:24:17;98.55;;;94.40;;
57057;SDS011;55017;52.848;6.748;2022-11-02T11:26:58;98.13;;;94.53;;
57057;SDS011;55017;52.848;6.748;2022-11-02T11:29:34;96.45;;;92.72;;
57057;SDS011;55017;52.848;6.748;2022-11-02T11:32:03;97.13;;;93.55;;
57057;SDS011;55017;52.848;6.748;2022-11-02T11:34:37;97.82;;;94.40;;
57057;SDS011;55017;52.848;6.748;2022-11-02T11:37:10;100.00;;;96.38;;
57057;SDS011;55017;52.848;6.748;2022-11-02T11:39:39;97.93;;;94.32;;
57057;SDS011;55017;52.848;6.748;2022-11-02T11:42:12;95.38;;;91.88;;
57057;SDS011;55017;52.848;6.748;2022-11-02T11:44:44;98.65;;;95.05;;
57057;SDS011;55017;52.848;6.748;2022-11-02T11:47:25;97.80;;;94.13;;
57057;SDS011;55017;52.848;6.748;2022-11-02T11:52:20;96.55;;;92.75;;
57057;SDS011;55017;52.848;6.748;2022-11-02T11:54:56;95.53;;;92.18;;
57057;SDS011;55017;52.848;6.748;2022-11-02T11:57:24;93.68;;;90.38;;
57057;SDS011;55017;52.848;6.748;2022-11-02T11:59:56;95.70;;;92.10;;
57057;SDS011;55017;52.848;6.748;2022-11-02T12:02:27;95.80;;;92.30;;
57057;SDS011;55017;52.848;6.748;2022-11-02T12:05:01;97.20;;;93.55;;
57057;SDS011;55017;52.848;6.748;2022-11-02T12:24:03;97.20;;;93.43;;
57057;SDS011;55017;52.848;6.748;2022-11-02T12:35:34;100.15;;;96.65;;
57057;SDS011;55017;52.848;6.748;2022-11-02T12:41:16;96.97;;;93.65;;
57057;SDS011;55017;52.848;6.748;2022-11-02T12:44:13;98.28;;;94.88;;
57057;SDS011;55017;52.848;6.748;2022-11-02T12:52:47;99.00;;;95.43;;
57057;SDS011;55017;52.848;6.748;2022-11-02T12:55:35;99.00;;;95.35;;
57057;SDS011;55017;52.848;6.748;2022-11-02T12:58:06;99.22;;;95.63;;
57057;SDS011;55017;52.848;6.748;2022-11-02T13:05:55;102.28;;;98.40;;
57057;SDS011;55017;52.848;6.748;2022-11-02T13:08:38;102.20;;;98.45;;
57057;SDS011;55017;52.848;6.748;2022-11-02T13:11:16;99.63;;;95.80;;
57057;SDS011;55017;52.848;6.748;2022-11-02T13:13:48;99.97;;;96.57;;
57057;SDS011;55017;52.848;6.748;2022-11-02T13:16:19;99.75;;;96.07;;
57057;SDS011;55017;52.848;6.748;2022-11-02T13:18:52;98.75;;;94.97;;
57057;SDS011;55017;52.848;6.748;2022-11-02T13:21:44;99.35;;;95.75;;
57057;SDS011;55017;52.848;6.748;2022-11-02T13:24:12;100.05;;;96.55;;
57057;SDS011;55017;52.848;6.748;2022-11-02T13:26:43;98.68;;;95.03;;
57057;SDS011;55017;52.848;6.748;2022-11-02T13:29:13;101.45;;;97.72;;
57057;SDS011;55017;52.848;6.748;2022-11-02T13:31:54;99.70;;;96.28;;
57057;SDS011;55017;52.848;6.748;2022-11-02T13:34:34;105.22;;;101.47;;
57057;SDS011;55017;52.848;6.748;2022-11-02T13:39:36;104.85;;;100.75;;
57057;SDS011;55017;52.848;6.748;2022-11-02T13:42:11;104.18;;;100.38;;
57057;SDS011;55017;52.848;6.748;2022-11-02T13:45:00;100.55;;;96.95;;
57057;SDS011;55017;52.848;6.748;2022-11-02T13:50:22;104.57;;;100.47;;
57057;SDS011;55017;52.848;6.748;2022-11-02T13:52:54;100.57;;;96.63;;
57057;SDS011;55017;52.848;6.748;2022-11-02T13:55:23;101.05;;;97.13;;
57057;SDS011;55017;52.848;6.748;2022-11-02T13:58:03;104.22;;;100.18;;
57057;SDS011;55017;52.848;6.748;2022-11-02T14:00:30;100.95;;;97.13;;
57057;SDS011;55017;52.848;6.748;2022-11-02T14:03:05;103.03;;;98.97;;
57057;SDS011;55017;52.848;6.748;2022-11-02T14:05:40;102.25;;;98.28;;
57057;SDS011;55017;52.848;6.748;2022-11-02T14:27:01;104.60;;;100.70;;
57057;SDS011;55017;52.848;6.748;2022-11-02T14:32:11;101.78;;;98.13;;
57057;SDS011;55017;52.848;6.748;2022-11-02T14:34:53;104.05;;;100.45;;
57057;SDS011;55017;52.848;6.748;2022-11-02T14:37:34;106.70;;;102.63;;
57057;SDS011;55017;52.848;6.748;2022-11-02T14:40:18;110.50;;;106.68;;
57057;SDS011;55017;52.848;6.748;2022-11-02T14:46:01;107.97;;;104.00;;
57057;SDS011;55017;52.848;6.748;2022-11-02T14:48:42;106.25;;;102.32;;
57057;SDS011;55017;52.848;6.748;2022-11-02T14:51:27;108.82;;;104.80;;
57057;SDS011;55017;52.848;6.748;2022-11-02T14:54:00;107.00;;;103.15;;
57057;SDS011;55017;52.848;6.748;2022-11-02T14:56:44;104.78;;;100.90;;
57057;SDS011;55017;52.848;6.748;2022-11-02T14:59:36;112.15;;;108.07;;
57057;SDS011;55017;52.848;6.748;2022-11-02T15:04:35;111.25;;;106.97;;
57057;SDS011;55017;52.848;6.748;2022-11-02T15:07:02;105.90;;;102.07;;
57057;SDS011;55017;52.848;6.748;2022-11-02T15:14:59;105.72;;;101.40;;
57057;SDS011;55017;52.848;6.748;2022-11-02T15:25:24;107.65;;;103.63;;
57057;SDS011;55017;52.848;6.748;2022-11-02T15:27:51;108.80;;;104.63;;
57057;SDS011;55017;52.848;6.748;2022-11-02T15:30:21;109.10;;;105.40;;
57057;SDS011;55017;52.848;6.748;2022-11-02T15:32:49;105.03;;;100.97;;
57057;SDS011;55017;52.848;6.748;2022-11-02T15:35:19;108.80;;;104.97;;
57057;SDS011;55017;52.848;6.748;2022-11-02T15:37:48;107.07;;;103.10;;
57057;SDS011;55017;52.848;6.748;2022-11-02T15:40:20;108.90;;;104.72;;
57057;SDS011;55017;52.848;6.748;2022-11-02T15:46:04;106.05;;;102.10;;
57057;SDS011;55017;52.848;6.748;2022-11-02T15:48:17;106.47;;;102.38;;
57057;SDS011;55017;52.848;6.748;2022-11-02T15:58:59;110.05;;;105.90;;
57057;SDS011;55017;52.848;6.748;2022-11-02T16:01:43;108.30;;;104.40;;
57057;SDS011;55017;52.848;6.748;2022-11-02T16:04:12;106.45;;;102.53;;
57057;SDS011;55017;52.848;6.748;2022-11-02T16:06:45;109.88;;;105.82;;
57057;SDS011;55017;52.848;6.748;2022-11-02T16:12:17;110.78;;;106.40;;
57057;SDS011;55017;52.848;6.748;2022-11-02T16:14:49;107.50;;;103.45;;
57057;SDS011;55017;52.848;6.748;2022-11-02T16:17:26;111.20;;;106.95;;
57057;SDS011;55017;52.848;6.748;2022-11-02T16:20:09;110.93;;;106.55;;
57057;SDS011;55017;52.848;6.748;2022-11-02T16:22:44;112.80;;;108.65;;
57057;SDS011;55017;52.848;6.748;2022-11-02T16:25:19;110.07;;;105.80;;
57057;SDS011;55017;52.848;6.748;2022-11-02T16:27:52;112.13;;;107.90;;
57057;SDS011;55017;52.848;6.748;2022-11-02T16:30:19;109.30;;;105.43;;
57057;SDS011;55017;52.848;6.748;2022-11-02T16:32:46;106.55;;;102.47;;
57057;SDS011;55017;52.848;6.748;2022-11-02T16:35:18;110.00;;;105.90;;
57057;SDS011;55017;52.848;6.748;2022-11-02T16:37:46;113.35;;;108.85;;
57057;SDS011;55017;52.848;6.748;2022-11-02T16:42:40;113.80;;;109.75;;
57057;SDS011;55017;52.848;6.748;2022-11-02T16:45:28;112.13;;;108.10;;
57057;SDS011;55017;52.848;6.748;2022-11-02T16:47:55;112.05;;;107.88;;
57057;SDS011;55017;52.848;6.748;2022-11-02T16:50:22;109.60;;;105.15;;
57057;SDS011;55017;52.848;6.748;2022-11-02T16:52:54;107.43;;;103.20;;
57057;SDS011;55017;52.848;6.748;2022-11-02T16:55:44;111.63;;;107.50;;
57057;SDS011;55017;52.848;6.748;2022-11-02T16:58:13;111.68;;;107.45;;
57057;SDS011;55017;52.848;6.748;2022-11-02T17:00:56;111.00;;;107.10;;